createdAt,value
2022-10-23T00:01:21.459Z,5.59
2022-10-23T00:03:51.765Z,5.60
2022-10-23T00:06:18.920Z,5.67
2022-10-23T00:08:49.269Z,5.80
2022-10-23T00:11:23.463Z,5.86
2022-10-23T00:13:51.937Z,5.44
2022-10-23T00:16:18.879Z,5.33
2022-10-23T00:18:45.909Z,5.34
2022-10-23T00:21:15.528Z,5.37
2022-10-23T00:23:42.568Z,5.13
2022-10-23T00:26:09.935Z,5.18
2022-10-23T00:28:37.869Z,5.46
2022-10-23T00:31:06.161Z,5.52
2022-10-23T00:33:33.743Z,5.62
2022-10-23T00:36:00.801Z,5.51
2022-10-23T00:38:28.098Z,4.84
2022-10-23T00:40:55.105Z,4.47
2022-10-23T00:43:27.169Z,4.75
2022-10-23T00:45:54.133Z,5.05
2022-10-23T00:48:21.959Z,5.07
2022-10-23T00:50:50.740Z,5.16
2022-10-23T00:53:21.391Z,4.94
2022-10-23T00:55:51.909Z,5.04
2022-10-23T00:58:21.149Z,5.28
2022-10-23T01:00:54.812Z,5.36
2022-10-23T01:03:25.373Z,5.41
2022-10-23T01:06:07.540Z,5.26
2022-10-23T01:08:50.443Z,5.22
2022-10-23T01:11:43.616Z,5.15
2022-10-23T01:14:23.602Z,4.94
2022-10-23T01:16:50.450Z,4.90
2022-10-23T01:19:27.715Z,4.95
2022-10-23T01:22:26.624Z,5.13
2022-10-23T01:25:02.362Z,5.08
2022-10-23T01:27:40.260Z,5.00
2022-10-23T01:30:11.585Z,4.96
2022-10-23T01:33:15.464Z,4.86
2022-10-23T01:35:58.192Z,4.85
2022-10-23T01:38:32.716Z,4.96
2022-10-23T01:41:04.903Z,4.98
2022-10-23T01:43:45.275Z,4.93
2022-10-23T01:46:16.642Z,5.08
2022-10-23T01:48:51.470Z,5.22
2022-10-23T01:51:20.940Z,5.20
2022-10-23T01:53:50.869Z,4.96
2022-10-23T01:56:22.829Z,5.05
2022-10-23T01:58:53.156Z,5.15
2022-10-23T02:01:23.979Z,4.95
2022-10-23T02:03:52.376Z,4.82
2022-10-23T02:06:19.711Z,4.65
2022-10-23T02:08:47.099Z,4.76
2022-10-23T02:11:17.015Z,4.88
2022-10-23T02:13:55.131Z,5.13
2022-10-23T02:16:48.428Z,5.19
2022-10-23T02:19:21.444Z,5.08
2022-10-23T02:21:53.964Z,4.46
2022-10-23T02:24:43.648Z,4.70
2022-10-23T02:27:13.995Z,4.78
2022-10-23T02:30:04.430Z,4.83
2022-10-23T02:32:32.201Z,4.65
2022-10-23T02:34:59.773Z,4.74
2022-10-23T02:37:26.956Z,4.69
2022-10-23T02:39:55.433Z,4.59
2022-10-23T02:42:38.623Z,4.61
2022-10-23T02:45:13.655Z,4.38
2022-10-23T02:47:59.851Z,4.26
2022-10-23T02:50:53.483Z,4.17
2022-10-23T02:53:42.377Z,3.95
2022-10-23T02:56:11.559Z,4.00
2022-10-23T02:58:41.134Z,3.97
2022-10-23T03:01:18.668Z,4.25
2022-10-23T03:03:52.835Z,4.45
2022-10-23T03:06:20.661Z,4.56
2022-10-23T03:09:05.127Z,4.66
2022-10-23T03:11:32.249Z,4.94
2022-10-23T03:13:59.814Z,4.99
2022-10-23T03:16:27.705Z,4.53
2022-10-23T03:18:55.024Z,3.96
2022-10-23T03:21:22.299Z,3.82
2022-10-23T03:23:49.245Z,4.02
2022-10-23T03:26:16.392Z,4.19
2022-10-23T03:28:43.539Z,4.37
2022-10-23T03:31:10.428Z,4.50
2022-10-23T03:33:37.396Z,4.40
2022-10-23T03:36:04.498Z,4.14
2022-10-23T03:38:31.696Z,4.15
2022-10-23T03:40:58.582Z,4.19
2022-10-23T03:43:25.436Z,4.02
2022-10-23T03:45:53.310Z,4.09
2022-10-23T03:48:20.189Z,4.30
2022-10-23T03:50:47.056Z,4.08
2022-10-23T03:53:13.994Z,4.15
2022-10-23T03:55:41.115Z,4.27
2022-10-23T03:58:09.083Z,4.30
2022-10-23T04:00:36.042Z,4.34
2022-10-23T04:03:05.618Z,4.54
2022-10-23T04:05:32.866Z,4.70
2022-10-23T04:07:59.703Z,4.45
2022-10-23T04:10:26.596Z,4.65
2022-10-23T04:12:53.549Z,4.24
2022-10-23T04:15:20.496Z,4.31
2022-10-23T04:17:47.539Z,4.25
2022-10-23T04:20:14.701Z,4.48
2022-10-23T04:22:41.968Z,4.77
2022-10-23T04:25:09.642Z,5.10
2022-10-23T04:27:36.609Z,5.49
2022-10-23T04:30:04.221Z,5.70
2022-10-23T04:32:31.199Z,6.05
2022-10-23T04:34:58.056Z,6.27
2022-10-23T04:37:24.955Z,6.39
2022-10-23T04:39:51.978Z,6.35
2022-10-23T04:42:18.907Z,6.20
2022-10-23T04:44:45.771Z,6.10
2022-10-23T04:47:12.739Z,6.03
2022-10-23T04:49:39.639Z,5.91
2022-10-23T04:52:06.558Z,5.93
2022-10-23T04:54:38.034Z,6.07
2022-10-23T04:57:05.023Z,6.31
2022-10-23T04:59:31.811Z,6.54
2022-10-23T05:01:58.819Z,6.71
2022-10-23T05:04:25.850Z,6.68
2022-10-23T05:06:52.780Z,6.56
2022-10-23T05:09:22.717Z,6.36
2022-10-23T05:11:52.218Z,6.27
2022-10-23T05:14:22.972Z,6.29
2022-10-23T05:17:00.497Z,6.12
2022-10-23T05:19:38.035Z,6.08
2022-10-23T05:22:06.041Z,6.09
2022-10-23T05:24:34.763Z,6.27
2022-10-23T05:27:02.045Z,6.54
2022-10-23T05:29:29.367Z,6.86
2022-10-23T05:32:01.414Z,6.97
2022-10-23T05:34:31.142Z,6.84
2022-10-23T05:36:58.402Z,6.85
2022-10-23T05:39:25.441Z,6.96
2022-10-23T05:41:52.391Z,7.09
2022-10-23T05:44:19.330Z,6.97
2022-10-23T05:46:46.292Z,6.90
2022-10-23T05:49:13.752Z,7.14
2022-10-23T05:51:41.008Z,7.44
2022-10-23T05:54:08.834Z,7.81
2022-10-23T05:56:37.506Z,8.11
2022-10-23T05:59:04.990Z,8.36
2022-10-23T06:01:32.060Z,8.64
2022-10-23T06:04:16.111Z,8.81
2022-10-23T06:06:46.123Z,8.59
2022-10-23T06:09:16.214Z,8.78
2022-10-23T06:11:43.493Z,9.02
2022-10-23T06:14:13.661Z,9.32
2022-10-23T06:16:43.608Z,9.55
2022-10-23T06:19:14.266Z,9.73
2022-10-23T06:21:41.926Z,9.70
2022-10-23T06:24:09.373Z,9.80
2022-10-23T06:26:39.038Z,9.81
2022-10-23T06:29:10.937Z,9.50
2022-10-23T06:31:41.225Z,9.17
2022-10-23T06:34:13.812Z,9.13
2022-10-23T06:36:40.919Z,9.24
2022-10-23T06:39:07.886Z,9.37
2022-10-23T06:41:37.765Z,9.31
2022-10-23T06:44:05.214Z,9.15
2022-10-23T06:46:38.409Z,9.08
2022-10-23T06:49:05.348Z,9.60
2022-10-23T06:51:35.276Z,10.05
2022-10-23T06:54:02.331Z,10.49
2022-10-23T06:56:29.270Z,10.72
2022-10-23T06:58:56.300Z,10.68
2022-10-23T07:01:23.480Z,10.52
2022-10-23T07:03:50.606Z,10.27
2022-10-23T07:06:17.900Z,10.01
2022-10-23T07:08:47.984Z,10.37
2022-10-23T07:11:15.006Z,10.42
2022-10-23T07:13:41.867Z,10.37
2022-10-23T07:16:16.587Z,10.59
2022-10-23T07:18:44.134Z,10.69
2022-10-23T07:21:11.247Z,10.81
2022-10-23T07:23:38.550Z,10.65
2022-10-23T07:26:16.057Z,10.72
2022-10-23T07:28:47.713Z,10.87
2022-10-23T07:31:14.857Z,10.91
2022-10-23T07:33:42.080Z,11.07
2022-10-23T07:36:11.608Z,11.28
2022-10-23T07:38:38.912Z,11.32
2022-10-23T07:41:08.927Z,11.44
2022-10-23T07:43:41.621Z,11.71
2022-10-23T07:46:08.866Z,12.02
2022-10-23T07:48:37.617Z,12.40
2022-10-23T07:51:16.237Z,12.81
2022-10-23T07:53:44.511Z,12.63
2022-10-23T07:56:17.695Z,12.46
2022-10-23T07:58:44.951Z,12.35
2022-10-23T08:01:32.581Z,12.62
2022-10-23T08:04:00.375Z,12.59
2022-10-23T08:06:27.415Z,12.92
2022-10-23T08:08:54.452Z,12.87
2022-10-23T08:11:24.470Z,13.03
2022-10-23T08:13:53.136Z,12.66
2022-10-23T08:16:20.726Z,12.38
2022-10-23T08:18:47.878Z,12.84
2022-10-23T08:21:14.785Z,12.89
2022-10-23T08:23:42.377Z,13.05
2022-10-23T08:26:10.649Z,13.19
2022-10-23T08:28:38.310Z,12.91
2022-10-23T08:31:14.474Z,12.93
2022-10-23T08:33:41.677Z,12.92
2022-10-23T08:36:24.463Z,12.53
2022-10-23T08:38:53.713Z,12.48
2022-10-23T08:41:38.729Z,12.56
2022-10-23T08:44:27.172Z,12.73
2022-10-23T08:47:06.950Z,12.75
2022-10-23T08:49:49.749Z,12.65
2022-10-23T08:52:25.969Z,12.79
2022-10-23T08:55:03.167Z,12.88
2022-10-23T08:57:40.120Z,13.23
2022-10-23T09:00:15.429Z,13.15
2022-10-23T09:02:48.823Z,13.02
2022-10-23T09:05:37.027Z,13.16
2022-10-23T09:08:19.100Z,13.67
2022-10-23T09:11:02.491Z,13.51
2022-10-23T09:13:32.795Z,13.82
2022-10-23T09:16:31.696Z,13.78
2022-10-23T09:18:59.449Z,13.68
2022-10-23T09:21:32.838Z,13.83
2022-10-23T09:24:02.321Z,13.89
2022-10-23T09:26:29.225Z,13.85
2022-10-23T09:29:08.515Z,13.61
2022-10-23T09:31:35.586Z,13.76
2022-10-23T09:34:02.709Z,13.78
2022-10-23T09:36:33.486Z,13.91
2022-10-23T09:39:25.329Z,13.63
2022-10-23T09:41:56.326Z,13.60
2022-10-23T09:44:31.724Z,13.99
2022-10-23T09:47:20.221Z,13.83
2022-10-23T09:49:53.832Z,13.95
2022-10-23T09:52:54.361Z,14.32
2022-10-23T09:55:24.671Z,14.74
2022-10-23T09:57:54.002Z,14.51
2022-10-23T10:00:24.404Z,14.51
2022-10-23T10:03:06.684Z,14.64
2022-10-23T10:05:35.080Z,14.52
2022-10-23T10:08:05.842Z,14.70
2022-10-23T10:10:40.492Z,14.34
2022-10-23T10:13:35.044Z,14.67
2022-10-23T10:16:28.232Z,14.16
2022-10-23T10:19:21.184Z,14.50
2022-10-23T10:22:01.127Z,14.43
2022-10-23T10:25:05.456Z,14.47
2022-10-23T10:27:38.559Z,14.69
2022-10-23T10:30:37.912Z,14.80
2022-10-23T10:33:22.578Z,14.52
2022-10-23T10:36:02.477Z,14.33
2022-10-23T10:38:41.681Z,14.55
2022-10-23T10:41:17.844Z,14.58
2022-10-23T10:44:12.831Z,14.21
2022-10-23T10:46:49.100Z,14.30
2022-10-23T10:49:18.817Z,14.31
2022-10-23T10:52:01.036Z,14.24
2022-10-23T10:54:49.924Z,14.02
2022-10-23T10:57:37.663Z,13.77
2022-10-23T11:00:14.219Z,13.99
2022-10-23T11:02:50.771Z,14.11
2022-10-23T11:05:39.203Z,14.41
2022-10-23T11:08:14.973Z,14.40
2022-10-23T11:10:46.614Z,14.50
2022-10-23T11:13:38.342Z,14.51
2022-10-23T11:16:23.125Z,14.54
2022-10-23T11:19:21.056Z,14.60
2022-10-23T11:22:18.851Z,14.74
2022-10-23T11:25:23.220Z,14.69
2022-10-23T11:28:20.887Z,14.76
2022-10-23T11:31:12.335Z,15.11
2022-10-23T11:34:13.640Z,15.16
2022-10-23T11:36:53.068Z,15.21
2022-10-23T11:39:25.038Z,15.32
2022-10-23T11:41:58.226Z,15.13
2022-10-23T11:44:39.261Z,14.85
2022-10-23T11:47:45.868Z,14.87
2022-10-23T11:50:14.029Z,14.82
2022-10-23T11:53:13.698Z,14.89
2022-10-23T11:56:01.470Z,14.93
2022-10-23T11:58:48.407Z,15.13
2022-10-23T12:01:22.812Z,15.31
2022-10-23T12:04:21.022Z,15.10
2022-10-23T12:06:52.903Z,15.06
2022-10-23T12:09:44.040Z,15.14
2022-10-23T12:12:10.929Z,14.97
2022-10-23T12:14:45.283Z,14.81
2022-10-23T12:17:39.710Z,14.70
2022-10-23T12:20:09.434Z,14.73
2022-10-23T12:22:42.500Z,14.88
2022-10-23T12:25:15.907Z,15.12
2022-10-23T12:28:25.943Z,14.98
2022-10-23T12:31:26.566Z,15.07
2022-10-23T12:33:53.615Z,15.22
2022-10-23T12:36:20.613Z,15.33
2022-10-23T12:38:49.256Z,15.20
2022-10-23T12:41:28.344Z,15.36
2022-10-23T12:44:10.414Z,15.32
2022-10-23T12:46:41.441Z,15.21
2022-10-23T12:49:20.051Z,15.31
2022-10-23T12:51:56.163Z,15.33
2022-10-23T12:54:23.843Z,15.17
2022-10-23T12:56:51.344Z,15.03
2022-10-23T12:59:25.056Z,15.02
2022-10-23T13:01:53.197Z,14.99
2022-10-23T13:04:29.737Z,14.93
2022-10-23T13:07:01.834Z,14.80
2022-10-23T13:09:33.760Z,14.92
2022-10-23T13:12:03.619Z,14.89
2022-10-23T13:14:35.137Z,14.93
2022-10-23T13:17:05.432Z,14.99
2022-10-23T13:19:33.037Z,14.96
2022-10-23T13:22:01.518Z,14.92
2022-10-23T13:24:30.073Z,14.99
2022-10-23T13:26:58.394Z,15.01
2022-10-23T13:29:34.890Z,14.96
2022-10-23T13:32:24.790Z,14.86
2022-10-23T13:35:03.763Z,14.78
2022-10-23T13:37:31.417Z,14.67
2022-10-23T13:40:06.639Z,14.75
2022-10-23T13:42:33.665Z,14.76
2022-10-23T13:45:00.677Z,14.77
2022-10-23T13:47:27.973Z,14.76
2022-10-23T13:49:54.981Z,14.76
2022-10-23T13:52:23.343Z,14.82
2022-10-23T13:54:50.753Z,14.74
2022-10-23T13:57:18.400Z,14.67
2022-10-23T13:59:45.342Z,14.53
2022-10-23T14:02:22.111Z,14.48
2022-10-23T14:04:50.875Z,14.54
2022-10-23T14:07:18.147Z,14.39
2022-10-23T14:09:45.789Z,14.36
2022-10-23T14:12:12.984Z,14.36
2022-10-23T14:14:42.317Z,14.51
2022-10-23T14:17:09.397Z,14.53
2022-10-23T14:22:04.169Z,14.50
2022-10-23T14:24:31.216Z,14.42
2022-10-23T14:26:58.162Z,14.50
2022-10-23T14:29:25.299Z,14.61
2022-10-23T14:31:52.471Z,14.65
2022-10-23T14:34:19.685Z,14.64
2022-10-23T14:36:50.221Z,14.65
2022-10-23T14:39:18.555Z,14.67
2022-10-23T14:41:45.608Z,14.65
2022-10-23T14:44:12.815Z,14.65
2022-10-23T14:46:40.070Z,14.67
2022-10-23T14:49:07.332Z,14.59
2022-10-23T14:51:34.433Z,14.64
2022-10-23T14:54:10.169Z,14.66
2022-10-23T14:56:41.799Z,14.60
2022-10-23T14:59:11.828Z,14.51
2022-10-23T15:01:43.815Z,14.41
2022-10-23T15:04:15.073Z,14.30
2022-10-23T15:06:42.686Z,14.33
2022-10-23T15:09:09.965Z,14.27
2022-10-23T15:11:37.188Z,14.21
2022-10-23T15:14:04.349Z,14.36
2022-10-23T15:16:31.629Z,14.41
2022-10-23T15:18:59.375Z,14.41
2022-10-23T15:21:26.502Z,14.37
2022-10-23T15:23:53.535Z,14.41
2022-10-23T15:26:21.752Z,14.44
2022-10-23T15:28:57.344Z,14.42
2022-10-23T15:31:30.295Z,14.42
2022-10-23T15:33:57.832Z,14.40
2022-10-23T15:36:25.422Z,14.19
2022-10-23T15:38:52.965Z,14.00
2022-10-23T15:41:31.565Z,14.00
2022-10-23T15:44:00.227Z,13.90
2022-10-23T15:46:27.693Z,13.88
2022-10-23T15:48:54.852Z,13.81
2022-10-23T15:51:21.940Z,13.69
2022-10-23T15:53:49.058Z,13.63
2022-10-23T15:56:16.076Z,13.54
2022-10-23T15:58:43.385Z,13.51
2022-10-23T16:01:10.657Z,13.45
2022-10-23T16:03:39.026Z,13.53
2022-10-23T16:06:10.628Z,13.47
2022-10-23T16:08:38.142Z,13.51
2022-10-23T16:11:20.179Z,13.49
2022-10-23T16:13:48.872Z,13.37
2022-10-23T16:16:20.429Z,13.38
2022-10-23T16:18:47.813Z,13.40
2022-10-23T16:21:23.691Z,13.36
2022-10-23T16:23:55.222Z,13.30
2022-10-23T16:26:24.490Z,13.36
2022-10-23T16:29:00.882Z,13.06
2022-10-23T16:31:29.185Z,13.02
2022-10-23T16:34:00.498Z,13.04
2022-10-23T16:36:28.506Z,13.02
2022-10-23T16:38:56.039Z,13.00
2022-10-23T16:41:23.074Z,12.87
2022-10-23T16:43:50.572Z,12.76
2022-10-23T16:46:22.088Z,12.60
2022-10-23T16:48:51.905Z,12.59
2022-10-23T16:51:22.146Z,12.66
2022-10-23T16:53:49.657Z,12.70
2022-10-23T16:56:19.361Z,12.61
2022-10-23T16:58:46.274Z,12.75
2022-10-23T17:01:22.537Z,12.86
2022-10-23T17:03:51.351Z,12.90
2022-10-23T17:06:22.143Z,12.94
2022-10-23T17:08:49.841Z,12.85
2022-10-23T17:11:24.844Z,12.75
2022-10-23T17:13:58.487Z,12.70
2022-10-23T17:16:37.464Z,12.72
2022-10-23T17:19:15.898Z,12.60
2022-10-23T17:21:48.073Z,12.55
2022-10-23T17:24:15.049Z,12.48
2022-10-23T17:26:42.885Z,12.44
2022-10-23T17:29:11.079Z,12.41
2022-10-23T17:31:41.416Z,12.33
2022-10-23T17:34:12.665Z,12.33
2022-10-23T17:36:43.093Z,12.42
2022-10-23T17:39:12.860Z,12.51
2022-10-23T17:41:40.302Z,12.54
2022-10-23T17:44:07.392Z,12.36
2022-10-23T17:46:34.591Z,12.36
2022-10-23T17:49:03.571Z,12.32
2022-10-23T17:51:33.027Z,12.33
2022-10-23T17:54:02.056Z,12.45
2022-10-23T17:56:31.312Z,12.50
2022-10-23T17:59:12.019Z,12.61
2022-10-23T18:01:39.623Z,12.63
2022-10-23T18:04:11.447Z,12.76
2022-10-23T18:06:44.944Z,12.66
2022-10-23T18:09:12.342Z,12.57
2022-10-23T18:11:45.318Z,12.61
2022-10-23T18:14:15.932Z,12.68
2022-10-23T18:16:44.953Z,12.72
2022-10-23T18:19:11.902Z,12.66
2022-10-23T18:21:41.144Z,12.57
2022-10-23T18:24:08.625Z,12.47
2022-10-23T18:26:36.353Z,12.48
2022-10-23T18:29:05.198Z,12.49
2022-10-23T18:31:32.112Z,12.50
2022-10-23T18:34:02.199Z,12.50
2022-10-23T18:36:33.447Z,12.48
2022-10-23T18:39:00.824Z,12.42
2022-10-23T18:41:28.172Z,12.42
2022-10-23T18:43:55.533Z,12.35
2022-10-23T18:46:22.776Z,12.30
2022-10-23T18:48:50.537Z,12.14
2022-10-23T18:51:20.555Z,12.20
2022-10-23T18:53:47.953Z,11.93
2022-10-23T18:56:16.437Z,11.92
2022-10-23T18:58:43.339Z,11.92
2022-10-23T19:01:10.439Z,11.97
2022-10-23T19:03:37.386Z,11.98
2022-10-23T19:06:06.834Z,12.04
2022-10-23T19:08:37.176Z,11.92
2022-10-23T19:11:17.485Z,11.92
2022-10-23T19:13:44.714Z,11.94
2022-10-23T19:16:36.108Z,12.01
2022-10-23T19:19:14.131Z,11.93
2022-10-23T19:21:48.104Z,11.65
2022-10-23T19:24:32.168Z,11.73
2022-10-23T19:27:06.683Z,11.82
2022-10-23T19:29:33.940Z,11.81
2022-10-23T19:32:01.003Z,11.74
2022-10-23T19:34:28.133Z,11.79
2022-10-23T19:36:55.147Z,11.76
2022-10-23T19:39:22.962Z,11.70
2022-10-23T19:41:50.324Z,11.65
2022-10-23T19:44:17.885Z,11.71
2022-10-23T19:46:45.200Z,11.62
2022-10-23T19:49:13.106Z,11.57
2022-10-23T19:51:48.262Z,11.55
2022-10-23T19:54:18.259Z,11.65
2022-10-23T19:56:45.837Z,11.65
2022-10-23T19:59:13.073Z,11.74
2022-10-23T20:01:43.866Z,11.74
2022-10-23T20:04:13.508Z,11.76
2022-10-23T20:06:40.660Z,11.61
2022-10-23T20:09:09.118Z,11.53
2022-10-23T20:11:38.774Z,11.38
2022-10-23T20:14:06.607Z,11.26
2022-10-23T20:16:36.506Z,11.28
2022-10-23T20:19:08.524Z,11.32
2022-10-23T20:21:37.061Z,11.41
2022-10-23T20:24:04.397Z,11.46
2022-10-23T20:26:31.390Z,11.51
2022-10-23T20:28:58.609Z,11.44
2022-10-23T20:31:27.241Z,11.41
2022-10-23T20:33:54.975Z,11.39
2022-10-23T20:36:34.350Z,11.43
2022-10-23T20:39:10.763Z,11.33
2022-10-23T20:41:38.672Z,11.38
2022-10-23T20:44:08.794Z,11.41
2022-10-23T20:46:36.008Z,11.42
2022-10-23T20:49:03.346Z,11.47
2022-10-23T20:51:30.717Z,11.44
2022-10-23T20:53:59.582Z,11.04
2022-10-23T20:56:32.946Z,10.87
2022-10-23T20:59:11.156Z,10.85
2022-10-23T21:01:41.806Z,10.83
2022-10-23T21:04:11.231Z,10.70
2022-10-23T21:06:57.480Z,10.49
2022-10-23T21:09:30.635Z,10.52
2022-10-23T21:11:58.018Z,10.22
2022-10-23T21:14:25.168Z,9.93
2022-10-23T21:16:52.603Z,9.88
2022-10-23T21:19:22.199Z,9.84
2022-10-23T21:21:49.267Z,9.77
2022-10-23T21:24:17.741Z,9.93
2022-10-23T21:26:45.925Z,10.07
2022-10-23T21:29:18.388Z,10.09
2022-10-23T21:31:46.364Z,10.15
2022-10-23T21:34:13.705Z,10.08
2022-10-23T21:36:54.083Z,10.13
2022-10-23T21:39:28.831Z,9.97
2022-10-23T21:41:55.852Z,10.02
2022-10-23T21:44:22.824Z,10.10
2022-10-23T21:46:50.308Z,10.21
2022-10-23T21:49:17.502Z,10.30
2022-10-23T21:51:44.550Z,10.31
2022-10-23T21:54:14.599Z,9.75
2022-10-23T21:56:47.395Z,9.60
2022-10-23T21:59:17.870Z,9.72
2022-10-23T22:01:47.137Z,9.71
2022-10-23T22:04:16.301Z,9.53
2022-10-23T22:06:44.417Z,9.29
2022-10-23T22:09:17.138Z,9.39
2022-10-23T22:11:44.076Z,9.18
2022-10-23T22:14:15.117Z,9.22
2022-10-23T22:16:42.361Z,9.23
2022-10-23T22:19:11.984Z,9.30
2022-10-23T22:21:39.761Z,9.28
2022-10-23T22:24:07.003Z,9.44
2022-10-23T22:26:43.376Z,9.45
2022-10-23T22:29:19.449Z,9.48
2022-10-23T22:31:48.873Z,9.52
2022-10-23T22:34:47.941Z,9.58
2022-10-23T22:37:11.149Z,9.30
2022-10-23T22:39:38.598Z,9.22
2022-10-23T22:42:05.814Z,9.22
2022-10-23T22:44:32.930Z,8.81
2022-10-23T22:47:00.399Z,8.91
2022-10-23T22:49:27.597Z,9.16
2022-10-23T22:51:54.578Z,9.33
2022-10-23T22:54:21.337Z,9.37
2022-10-23T22:56:48.205Z,9.43
2022-10-23T22:59:15.139Z,9.39
2022-10-23T23:01:45.632Z,9.39
2022-10-23T23:04:32.921Z,9.01
2022-10-23T23:07:00.560Z,8.79
2022-10-23T23:09:28.504Z,8.49
2022-10-23T23:11:55.289Z,8.41
2022-10-23T23:14:24.082Z,8.17
2022-10-23T23:16:52.936Z,8.25
2022-10-23T23:19:20.601Z,8.46
2022-10-23T23:21:48.172Z,8.54
2022-10-23T23:24:17.991Z,8.60
2022-10-23T23:26:44.917Z,8.75
2022-10-23T23:29:12.297Z,8.64
2022-10-23T23:31:39.274Z,8.15
2022-10-23T23:34:06.459Z,7.93
2022-10-23T23:36:34.010Z,8.10
2022-10-23T23:39:01.474Z,8.38
2022-10-23T23:41:29.679Z,8.55
2022-10-23T23:43:58.356Z,8.79
2022-10-23T23:46:25.445Z,8.91
2022-10-23T23:48:52.490Z,8.97
2022-10-23T23:51:23.096Z,8.42
2022-10-23T23:53:50.621Z,7.96
2022-10-23T23:56:19.168Z,7.85
2022-10-23T23:58:46.734Z,7.76
